Terminal Aerodrome Forecast
Issued by NWS

Home | Current Version | Previous Version | Text Only | Print | Product List | Glossary On
Versions: 1 2 3 4 5 6 7 8 9 10 11 12 13 14 15 16 17 18 19 20 21 22 23 24 25 26 27 28 29 30 31 32 33 34 35 36 37 38 39 40 41 42
000
FTUS41 KBTV 261341 AAB
TAFPBG
TAF AMD
KPBG 261341Z 2614/2712 VRB03KT P6SM VCSH FEW006 OVC040
      TEMPO 2614/2616 5SM -RA BKN006 OVC035
     FM261600 12009KT P6SM VCSH OVC050
     FM262000 12009KT P6SM OVC070
     FM270500 VRB03KT P6SM BKN150=

USA.gov is the U.S. government's official web portal to all federal, state and local government web resources and services.